Merrill, IA (51038)

8:27 AM CST on November 26, 2014 (GMT -0600)
Le Mars Municipal | Change Station
CLOSE
Current Station
Airport
Location: Le Mars,
Elevation: 1198 ft
Nearby Weather Stations

Elev 1198 ft 42.78 °N, 96.19 °W | Updated 12 minutes ago

Overcast
Overcast
28 °F
Feels Like 15 °F
N
21
Wind Variable Wind from North
Gusts 30 mph

Today
High -- | Low -- °F
--% Chance of Precip.
Yesterday
High -- | Low -- °F
Precip. -- in
7:30 AM 4:54 PM
Waxing Crescent, 20% visible
Pressure 30.01 in
Visibility 5.0 miles
Clouds Overcast 1000 ft
Windchill 15 °F
Dew Point 27 °F
Humidity 93%
Rainfall 0.10 in
Snow Depth Not available.
UV 0 out of 12
Pollen .10 out of 12
Air Quality Not available.
Flu Activity Not available.
METAR KLRJ 261415Z AUTO 01018G26KT 5SM -RA OVC010 M02/M03 A3001 RMK AO2

More Conditions Fewer Conditions

Pressure 30.01 in
Visibility 5.0 miles
Clouds Overcast 1000 ft
Windchill 15 °F
Dew Point 27 °F
Humidity 93%
Rainfall 0.10 in
Snow Depth Not available.
UV 0 out of 12
Pollen .10 out of 12
Air Quality Not available.
Flu Activity Not available.
METAR KLRJ 261415Z AUTO 01018G26KT 5SM -RA OVC010 M02/M03 A3001 RMK AO2

More Conditions Fewer Conditions

10-Day Weather Forecast

Almanac

Astronomy

Nov. 26, 2014 Rise Set
Actual Time
Civil Twilight
Nautical Twilight
Astronomical Twilight
Moon
Length of Visible Light
Length of Day
Tomorrow will be .
, % of the Moon is Illuminated

Today's Extremes

State Highs State Lows

Community

WunderPhotos

Upload Photos

1,773,752 photos uploaded!

WunderBlogs® & News

Nearby

Air Quality

  Air Quality AQ Index Pollutant
Not available.

Snow Depth

Station Depth Elevation

Earthquake Activity

City Distance Mag. Time & Date
Minimum magnitude displayed is 2.5.

Coastal Water Temperatures

Place Temperature

Nearby Weather Stations